createdAt,value
2019-03-09T00:00:21.696Z,1004.18
2019-03-09T00:01:21.639Z,1004.09
2019-03-09T00:02:21.706Z,1004.04
2019-03-09T00:03:21.631Z,1004.02
2019-03-09T00:04:21.640Z,1003.98
2019-03-09T00:05:21.589Z,1003.94
2019-03-09T00:06:21.634Z,1003.92
2019-03-09T00:07:21.559Z,1003.93
2019-03-09T00:08:21.642Z,1003.85
2019-03-09T00:09:21.575Z,1003.79
2019-03-09T00:10:21.551Z,1003.83
2019-03-09T00:11:21.524Z,1003.80
2019-03-09T00:12:21.570Z,1003.69
2019-03-09T00:13:21.493Z,1003.69
2019-03-09T00:14:21.578Z,1003.71
2019-03-09T00:15:21.485Z,1003.68
2019-03-09T00:16:21.489Z,1003.61
2019-03-09T00:17:21.453Z,1003.60
2019-03-09T00:18:21.512Z,1003.60
2019-03-09T00:19:21.427Z,1003.58
2019-03-09T00:20:21.551Z,1003.54
2019-03-09T00:21:21.407Z,1003.54
2019-03-09T00:22:21.432Z,1003.48
2019-03-09T00:23:21.392Z,1003.46
2019-03-09T00:24:21.443Z,1003.45
2019-03-09T00:25:21.374Z,1003.42
2019-03-09T00:26:21.472Z,1003.39
2019-03-09T00:27:29.504Z,1003.35
2019-03-09T00:28:22.333Z,1003.33
2019-03-09T00:29:21.373Z,1003.28
2019-03-09T00:30:21.322Z,1003.22
2019-03-09T00:31:21.415Z,1003.17
2019-03-09T00:32:21.292Z,1003.21
2019-03-09T00:33:21.320Z,1003.15
2019-03-09T00:34:21.273Z,1003.18
2019-03-09T00:35:21.342Z,1003.15
2019-03-09T00:36:21.245Z,1003.09
2019-03-09T00:37:22.252Z,1003.08
2019-03-09T00:38:21.223Z,1003.08
2019-03-09T00:39:21.243Z,1003.03
2019-03-09T00:40:21.228Z,1003.09
2019-03-09T00:41:21.255Z,1003.00
2019-03-09T00:42:21.179Z,1003.02
2019-03-09T00:43:21.271Z,1003.00
2019-03-09T00:44:21.157Z,1002.94
2019-03-09T00:45:21.211Z,1002.94
2019-03-09T00:46:21.137Z,1002.92
2019-03-09T00:47:21.196Z,1002.85
2019-03-09T00:48:21.115Z,1002.82
2019-03-09T00:49:21.209Z,1002.72
2019-03-09T00:50:21.106Z,1002.72
2019-03-09T00:51:21.119Z,1002.68
2019-03-09T00:52:21.076Z,1002.65
2019-03-09T00:53:21.134Z,1002.63
2019-03-09T00:54:21.049Z,1002.65
2019-03-09T00:55:21.071Z,1002.57
2019-03-09T00:56:21.031Z,1002.61
2019-03-09T00:57:21.060Z,1002.53
2019-03-09T00:58:21.011Z,1002.49
2019-03-09T00:59:21.069Z,1002.56
2019-03-09T01:00:21.000Z,1002.48
2019-03-09T01:01:21.081Z,1002.48
2019-03-09T01:02:20.968Z,1002.43
2019-03-09T01:03:20.995Z,1002.45
2019-03-09T01:04:20.954Z,1002.41
2019-03-09T01:05:21.038Z,1002.39
2019-03-09T01:06:20.925Z,1002.32
2019-03-09T01:07:21.026Z,1002.30
2019-03-09T01:08:20.903Z,1002.23
2019-03-09T01:09:20.933Z,1002.23
2019-03-09T01:10:20.877Z,1002.19
2019-03-09T01:11:20.978Z,1002.18
2019-03-09T01:12:20.857Z,1002.16
2019-03-09T01:13:20.857Z,1002.10
2019-03-09T01:14:20.838Z,1002.11
2019-03-09T01:15:20.870Z,1002.08
2019-03-09T01:16:20.825Z,1002.06
2019-03-09T01:17:21.910Z,1002.04
2019-03-09T01:18:20.792Z,1001.93
2019-03-09T01:19:20.795Z,1001.96
2019-03-09T01:20:20.772Z,1001.95
2019-03-09T01:21:27.800Z,1001.89
2019-03-09T01:22:20.748Z,1001.79
2019-03-09T01:23:22.794Z,1001.85
2019-03-09T01:24:20.730Z,1001.82
2019-03-09T01:25:20.734Z,1001.75
2019-03-09T01:26:20.717Z,1001.75
2019-03-09T01:27:20.748Z,1001.69
2019-03-09T01:28:20.684Z,1001.62
2019-03-09T01:29:20.762Z,1001.65
2019-03-09T01:30:20.663Z,1001.59
2019-03-09T01:31:20.705Z,1001.56
2019-03-09T01:32:20.646Z,1001.46
2019-03-09T01:33:20.688Z,1001.55
2019-03-09T01:34:20.622Z,1001.39
2019-03-09T01:35:20.701Z,1001.34
2019-03-09T01:36:20.608Z,1001.28
2019-03-09T01:37:20.620Z,1001.23
2019-03-09T01:38:20.580Z,1001.26
2019-03-09T01:39:20.629Z,1001.23
2019-03-09T01:40:20.555Z,1001.23
2019-03-09T01:41:20.566Z,1001.22
2019-03-09T01:42:20.538Z,1001.16
2019-03-09T01:43:20.553Z,1001.13
2019-03-09T01:44:20.514Z,1001.06
2019-03-09T01:45:20.569Z,1001.08
2019-03-09T01:46:20.499Z,1001.02
2019-03-09T01:47:20.587Z,1001.02
2019-03-09T01:48:20.468Z,1001.06
2019-03-09T01:49:20.489Z,1000.96
2019-03-09T01:50:20.444Z,1000.96
2019-03-09T01:51:20.544Z,1000.98
2019-03-09T01:52:20.423Z,1000.93
2019-03-09T01:53:20.518Z,1000.88
2019-03-09T01:54:20.401Z,1000.84
2019-03-09T01:55:20.429Z,1000.82
2019-03-09T01:56:20.393Z,1000.81
2019-03-09T01:57:20.443Z,1000.80
2019-03-09T01:58:20.358Z,1000.77
2019-03-09T01:59:20.457Z,1000.72
2019-03-09T02:00:20.335Z,1000.71
2019-03-09T02:01:20.779Z,1000.75
2019-03-09T02:02:20.316Z,1000.69
2019-03-09T02:03:21.414Z,1000.70
2019-03-09T02:04:20.294Z,1000.68
2019-03-09T02:05:28.280Z,1000.63
2019-03-09T02:06:20.301Z,1000.63
2019-03-09T02:07:27.781Z,1000.60
2019-03-09T02:08:20.251Z,1000.47
2019-03-09T02:09:22.266Z,1000.58
2019-03-09T02:10:20.235Z,1000.54
2019-03-09T02:11:21.256Z,1000.43
2019-03-09T02:12:20.218Z,1000.43
2019-03-09T02:13:20.244Z,1000.35
2019-03-09T02:14:20.187Z,1000.48
2019-03-09T02:15:20.258Z,1000.37
2019-03-09T02:16:20.171Z,1000.39
2019-03-09T02:17:20.201Z,1000.39
2019-03-09T02:18:20.146Z,1000.32
2019-03-09T02:19:20.186Z,1000.31
2019-03-09T02:20:20.122Z,1000.28
2019-03-09T02:21:20.199Z,1000.22
2019-03-09T02:22:20.110Z,1000.27
2019-03-09T02:23:20.112Z,1000.18
2019-03-09T02:24:20.080Z,1000.26
2019-03-09T02:25:20.151Z,1000.17
2019-03-09T02:26:20.084Z,1000.20
2019-03-09T02:27:20.165Z,1000.16
2019-03-09T02:28:20.035Z,1000.10
2019-03-09T02:29:20.057Z,1000.03
2019-03-09T02:30:20.016Z,999.97
2019-03-09T02:31:20.084Z,1000.01
2019-03-09T02:32:20.012Z,1000.02
2019-03-09T02:33:20.105Z,999.94
2019-03-09T02:34:19.978Z,999.89
2019-03-09T02:35:20.001Z,999.81
2019-03-09T02:36:19.957Z,999.89
2019-03-09T02:37:20.029Z,999.74
2019-03-09T02:38:19.926Z,999.84
2019-03-09T02:39:20.015Z,999.78
2019-03-09T02:40:19.914Z,999.71
2019-03-09T02:41:19.953Z,999.74
2019-03-09T02:42:19.921Z,999.80
2019-03-09T02:43:19.941Z,999.74
2019-03-09T02:44:19.863Z,999.83
2019-03-09T02:45:19.953Z,999.71
2019-03-09T02:46:19.878Z,999.84
2019-03-09T02:47:19.897Z,999.75
2019-03-09T02:48:19.824Z,999.70
2019-03-09T02:49:20.901Z,999.72
2019-03-09T02:50:19.798Z,999.66
2019-03-09T02:51:27.784Z,999.64
2019-03-09T02:52:19.789Z,999.60
2019-03-09T02:53:27.797Z,999.66
2019-03-09T02:54:19.757Z,999.55
2019-03-09T02:55:21.766Z,999.47
2019-03-09T02:56:19.732Z,999.60
2019-03-09T02:57:19.758Z,999.56
2019-03-09T02:58:19.718Z,999.57
2019-03-09T02:59:19.746Z,999.53
2019-03-09T03:00:19.705Z,999.54
2019-03-09T03:01:19.762Z,999.51
2019-03-09T03:02:19.684Z,999.48
2019-03-09T03:03:20.662Z,999.55
2019-03-09T03:04:19.663Z,999.48
2019-03-09T03:05:19.715Z,999.40
2019-03-09T03:06:19.623Z,999.34
2019-03-09T03:07:19.728Z,999.38
2019-03-09T03:08:19.603Z,999.29
2019-03-09T03:09:19.607Z,999.27
2019-03-09T03:10:19.586Z,999.24
2019-03-09T03:11:19.621Z,999.19
2019-03-09T03:12:19.597Z,999.22
2019-03-09T03:13:19.634Z,999.20
2019-03-09T03:14:19.537Z,999.17
2019-03-09T03:15:19.546Z,999.24
2019-03-09T03:16:19.522Z,999.18
2019-03-09T03:17:19.558Z,999.26
2019-03-09T03:18:19.504Z,999.21
2019-03-09T03:19:19.573Z,999.18
2019-03-09T03:20:19.473Z,999.19
2019-03-09T03:21:19.484Z,999.26
2019-03-09T03:22:19.454Z,999.16
2019-03-09T03:23:19.525Z,999.13
2019-03-09T03:24:19.428Z,999.13
2019-03-09T03:25:19.519Z,999.11
2019-03-09T03:26:19.407Z,999.18
2019-03-09T03:27:19.422Z,999.11
2019-03-09T03:28:19.407Z,999.13
2019-03-09T03:29:19.437Z,999.08
2019-03-09T03:30:19.365Z,999.04
2019-03-09T03:31:19.449Z,999.05
2019-03-09T03:32:19.359Z,999.07
2019-03-09T03:33:19.404Z,999.08
2019-03-09T03:34:19.327Z,999.07
2019-03-09T03:35:19.375Z,999.12
2019-03-09T03:36:19.299Z,999.04
2019-03-09T03:37:27.284Z,999.14
2019-03-09T03:38:19.290Z,999.14
2019-03-09T03:39:27.288Z,999.08
2019-03-09T03:40:19.262Z,999.02
2019-03-09T03:41:26.789Z,999.05
2019-03-09T03:42:19.240Z,999.04
2019-03-09T03:43:19.253Z,999.04
2019-03-09T03:44:19.214Z,999.03
2019-03-09T03:45:19.237Z,998.97
2019-03-09T03:46:19.196Z,998.91
2019-03-09T03:47:19.253Z,998.91
2019-03-09T03:48:19.181Z,998.92
2019-03-09T03:49:19.286Z,998.85
2019-03-09T03:50:19.155Z,998.81
2019-03-09T03:51:19.177Z,998.83
2019-03-09T03:52:19.131Z,998.76
2019-03-09T03:53:19.226Z,998.74
2019-03-09T03:54:19.103Z,998.78
2019-03-09T03:55:19.207Z,998.81
2019-03-09T03:56:19.084Z,998.72
2019-03-09T03:57:19.119Z,998.71
2019-03-09T03:58:19.088Z,998.68
2019-03-09T03:59:19.134Z,998.61
2019-03-09T04:00:19.040Z,998.65
2019-03-09T04:01:19.158Z,998.72
2019-03-09T04:02:19.021Z,998.67
2019-03-09T04:03:19.077Z,998.67
2019-03-09T04:04:19.017Z,998.62
2019-03-09T04:05:19.067Z,998.69
2019-03-09T04:06:18.973Z,998.61
2019-03-09T04:07:18.985Z,998.72
2019-03-09T04:08:18.954Z,998.64
2019-03-09T04:09:19.021Z,998.71
2019-03-09T04:10:18.931Z,998.75
2019-03-09T04:11:19.014Z,998.78
2019-03-09T04:12:18.911Z,998.75
2019-03-09T04:13:18.926Z,998.87
2019-03-09T04:14:18.903Z,998.82
2019-03-09T04:15:18.935Z,998.89
2019-03-09T04:16:18.867Z,998.95
2019-03-09T04:17:18.950Z,998.87
2019-03-09T04:18:18.860Z,998.94
2019-03-09T04:19:18.887Z,998.90
2019-03-09T04:20:18.829Z,998.89
2019-03-09T04:21:18.871Z,998.86
2019-03-09T04:22:18.801Z,998.87
2019-03-09T04:23:27.802Z,998.85
2019-03-09T04:24:18.791Z,998.97
2019-03-09T04:25:23.817Z,998.93
2019-03-09T04:26:18.760Z,998.94
2019-03-09T04:27:26.291Z,999.02
2019-03-09T04:28:19.135Z,999.04
2019-03-09T04:29:18.751Z,998.97
2019-03-09T04:30:18.713Z,999.04
2019-03-09T04:31:18.738Z,999.02
2019-03-09T04:32:18.695Z,998.99
2019-03-09T04:33:18.748Z,999.11
2019-03-09T04:34:18.681Z,999.10
2019-03-09T04:35:18.768Z,999.09
2019-03-09T04:36:18.647Z,999.10
2019-03-09T04:37:18.673Z,999.17
2019-03-09T04:38:18.632Z,999.10
2019-03-09T04:39:18.716Z,999.12
2019-03-09T04:40:18.606Z,999.16
2019-03-09T04:41:18.703Z,999.13
2019-03-09T04:42:18.582Z,999.16
2019-03-09T04:43:18.611Z,999.28
2019-03-09T04:44:18.584Z,999.08
2019-03-09T04:45:18.628Z,999.24
2019-03-09T04:46:18.537Z,999.40
2019-03-09T04:47:18.641Z,999.40
2019-03-09T04:48:18.514Z,999.43
2019-03-09T04:49:18.553Z,999.48
2019-03-09T04:50:18.525Z,999.39
2019-03-09T04:51:18.564Z,999.43
2019-03-09T04:52:18.473Z,999.26
2019-03-09T04:53:18.480Z,999.39
2019-03-09T04:54:18.452Z,999.39
2019-03-09T04:55:18.524Z,999.36
2019-03-09T04:56:18.429Z,999.39
2019-03-09T04:57:18.505Z,999.43
2019-03-09T04:58:18.408Z,999.45
2019-03-09T04:59:18.415Z,999.40
2019-03-09T05:00:18.402Z,999.45
2019-03-09T05:01:18.427Z,999.52
2019-03-09T05:02:18.367Z,999.45
2019-03-09T05:03:18.442Z,999.20
2019-03-09T05:04:18.341Z,999.46
2019-03-09T05:05:18.386Z,999.40
2019-03-09T05:06:18.322Z,999.57
2019-03-09T05:07:18.381Z,999.55
2019-03-09T05:08:18.304Z,999.34
2019-03-09T05:09:27.291Z,999.42
2019-03-09T05:10:18.286Z,999.42
2019-03-09T05:11:18.294Z,999.36
2019-03-09T05:12:18.254Z,999.48
2019-03-09T05:13:25.797Z,999.55
2019-03-09T05:14:18.243Z,999.57
2019-03-09T05:15:18.245Z,999.71
2019-03-09T05:16:18.221Z,999.71
2019-03-09T05:17:18.239Z,999.75
2019-03-09T05:18:18.194Z,999.63
2019-03-09T05:19:18.246Z,999.71
2019-03-09T05:20:18.176Z,999.79
2019-03-09T05:21:18.266Z,999.80
2019-03-09T05:22:18.149Z,999.75
2019-03-09T05:23:18.184Z,999.73
2019-03-09T05:24:18.126Z,999.59
2019-03-09T05:25:18.211Z,999.68
2019-03-09T05:26:18.119Z,999.75
2019-03-09T05:27:18.196Z,999.80
2019-03-09T05:28:18.078Z,999.82
2019-03-09T05:29:18.108Z,999.83
2019-03-09T05:30:18.098Z,999.84
2019-03-09T05:31:18.127Z,999.79
2019-03-09T05:32:18.035Z,999.92
2019-03-09T05:33:18.136Z,999.69
2019-03-09T05:34:18.040Z,999.85
2019-03-09T05:35:18.058Z,999.84
2019-03-09T05:36:18.005Z,999.87
2019-03-09T05:37:18.065Z,999.86
2019-03-09T05:38:18.019Z,999.85
2019-03-09T05:39:17.972Z,999.70
2019-03-09T05:40:17.948Z,999.91
2019-03-09T05:41:18.024Z,999.98
2019-03-09T05:42:17.936Z,999.96
2019-03-09T05:43:17.998Z,999.89
2019-03-09T05:44:17.928Z,999.93
2019-03-09T05:45:17.920Z,999.91
2019-03-09T05:46:17.902Z,999.93
2019-03-09T05:47:17.924Z,999.85
2019-03-09T05:48:17.914Z,999.83
2019-03-09T05:49:17.938Z,999.99
2019-03-09T05:50:17.863Z,999.91
2019-03-09T05:51:17.879Z,999.87
2019-03-09T05:52:17.816Z,999.93
2019-03-09T05:53:19.940Z,1000.02
2019-03-09T05:54:17.795Z,999.99
2019-03-09T05:55:17.881Z,1000.11
2019-03-09T05:56:17.788Z,999.88
2019-03-09T05:57:17.797Z,1000.02
2019-03-09T05:58:17.780Z,1000.01
2019-03-09T05:59:25.281Z,999.98
2019-03-09T06:00:17.740Z,1000.11
2019-03-09T06:01:17.748Z,1000.05
2019-03-09T06:02:17.732Z,1000.17
2019-03-09T06:03:17.736Z,1000.20
2019-03-09T06:04:17.696Z,1000.24
2019-03-09T06:05:17.741Z,1000.26
2019-03-09T06:06:17.709Z,1000.21
2019-03-09T06:07:17.760Z,1000.34
2019-03-09T06:08:17.675Z,1000.39
2019-03-09T06:09:17.672Z,1000.37
2019-03-09T06:10:17.633Z,1000.52
2019-03-09T06:11:17.719Z,1000.51
2019-03-09T06:12:17.607Z,1000.57
2019-03-09T06:13:17.746Z,1000.51
2019-03-09T06:14:17.593Z,1000.50
2019-03-09T06:15:17.611Z,1000.48
2019-03-09T06:16:17.573Z,1000.48
2019-03-09T06:17:17.625Z,1000.51
2019-03-09T06:18:17.546Z,1000.47
2019-03-09T06:19:17.654Z,1000.53
2019-03-09T06:20:17.522Z,1000.48
2019-03-09T06:21:17.582Z,1000.54
2019-03-09T06:22:17.499Z,1000.60
2019-03-09T06:23:17.562Z,1000.56
2019-03-09T06:24:17.487Z,1000.51
2019-03-09T06:25:17.483Z,1000.59
2019-03-09T06:26:17.489Z,1000.55
2019-03-09T06:27:17.499Z,1000.55
2019-03-09T06:28:17.433Z,1000.61
2019-03-09T06:29:17.501Z,1000.66
2019-03-09T06:30:17.400Z,1000.77
2019-03-09T06:31:17.420Z,1000.76
2019-03-09T06:32:17.403Z,1000.81
2019-03-09T06:33:17.427Z,1000.64
2019-03-09T06:34:17.379Z,1000.71
2019-03-09T06:35:17.447Z,1000.63
2019-03-09T06:36:17.339Z,1000.65
2019-03-09T06:37:17.390Z,1000.66
2019-03-09T06:38:17.329Z,1000.57
2019-03-09T06:39:19.417Z,1000.70
2019-03-09T06:40:17.319Z,1000.67
2019-03-09T06:41:26.290Z,1000.65
2019-03-09T06:42:17.285Z,1000.78
2019-03-09T06:43:17.289Z,1000.83
2019-03-09T06:44:17.267Z,1000.77
2019-03-09T06:45:33.810Z,1000.80
2019-03-09T06:46:17.249Z,1000.83
2019-03-09T06:47:18.286Z,1000.91
2019-03-09T06:48:17.204Z,1000.79
2019-03-09T06:49:17.223Z,1000.85
2019-03-09T06:50:17.217Z,1000.90
2019-03-09T06:51:17.242Z,1000.90
2019-03-09T06:52:17.185Z,1000.91
2019-03-09T06:53:17.259Z,1001.00
2019-03-09T06:54:17.137Z,1000.98
2019-03-09T06:55:17.180Z,1001.06
2019-03-09T06:56:17.114Z,1001.08
2019-03-09T06:57:29.800Z,1001.08
2019-03-09T06:58:17.094Z,1001.08
2019-03-09T06:59:17.196Z,1001.13
2019-03-09T07:00:17.111Z,1000.89
2019-03-09T07:01:17.105Z,1001.09
2019-03-09T07:02:17.064Z,1001.13
2019-03-09T07:03:17.123Z,1001.11
2019-03-09T07:04:17.032Z,1001.13
2019-03-09T07:05:17.134Z,1001.16
2019-03-09T07:06:17.006Z,1001.13
2019-03-09T07:07:17.082Z,1001.14
2019-03-09T07:08:17.007Z,1001.04
2019-03-09T07:09:17.056Z,1001.20
2019-03-09T07:10:16.963Z,1001.13
2019-03-09T07:11:16.968Z,1001.04
2019-03-09T07:12:16.957Z,1001.23
2019-03-09T07:13:16.979Z,1001.19
2019-03-09T07:14:16.925Z,1001.31
2019-03-09T07:15:16.993Z,1001.32
2019-03-09T07:16:16.902Z,1001.29
2019-03-09T07:17:16.934Z,1001.16
2019-03-09T07:18:16.881Z,1001.16
2019-03-09T07:19:16.918Z,1001.22
2019-03-09T07:20:16.861Z,1001.29
2019-03-09T07:21:16.932Z,1001.29
2019-03-09T07:22:16.845Z,1001.36
2019-03-09T07:23:16.842Z,1001.39
2019-03-09T07:24:16.813Z,1001.40
2019-03-09T07:25:18.905Z,1001.32
2019-03-09T07:26:16.832Z,1001.29
2019-03-09T07:27:17.880Z,1001.35
2019-03-09T07:28:16.835Z,1001.29
2019-03-09T07:29:16.781Z,1001.31
2019-03-09T07:30:16.743Z,1001.17
2019-03-09T07:31:17.840Z,1001.40
2019-03-09T07:32:16.771Z,1001.38
2019-03-09T07:33:17.747Z,1001.41
2019-03-09T07:34:16.700Z,1001.29
2019-03-09T07:35:16.720Z,1001.36
2019-03-09T07:36:16.678Z,1001.30
2019-03-09T07:37:16.735Z,1001.38
2019-03-09T07:38:16.664Z,1001.35
2019-03-09T07:39:16.750Z,1001.41
2019-03-09T07:40:16.631Z,1001.38
2019-03-09T07:41:16.664Z,1001.47
2019-03-09T07:42:16.609Z,1001.53
2019-03-09T07:43:16.705Z,1001.40
2019-03-09T07:44:16.586Z,1001.48
2019-03-09T07:45:16.687Z,1001.43
2019-03-09T07:46:16.565Z,1001.55
2019-03-09T07:47:16.600Z,1001.50
2019-03-09T07:48:16.568Z,1001.63
2019-03-09T07:49:16.641Z,1001.50
2019-03-09T07:50:16.520Z,1001.47
2019-03-09T07:51:16.563Z,1001.56
2019-03-09T07:52:16.497Z,1001.55
2019-03-09T07:53:16.572Z,1001.51
2019-03-09T07:54:16.483Z,1001.68
2019-03-09T07:55:16.550Z,1001.53
2019-03-09T07:56:16.453Z,1001.62
2019-03-09T07:57:16.462Z,1001.70
2019-03-09T07:58:16.451Z,1001.70
2019-03-09T07:59:16.474Z,1001.67
2019-03-09T08:00:16.411Z,1001.78
2019-03-09T08:01:16.487Z,1001.80
2019-03-09T08:02:16.384Z,1001.73
2019-03-09T08:03:16.433Z,1001.78
2019-03-09T08:04:16.362Z,1001.78
2019-03-09T08:05:16.413Z,1001.79
2019-03-09T08:06:16.341Z,1001.81
2019-03-09T08:07:16.428Z,1001.79
2019-03-09T08:08:16.331Z,1001.87
2019-03-09T08:09:18.388Z,1001.90
2019-03-09T08:10:16.294Z,1001.95
2019-03-09T08:11:18.400Z,1001.85
2019-03-09T08:12:16.272Z,1001.86
2019-03-09T08:13:16.295Z,1001.86
2019-03-09T08:14:16.250Z,1001.90
2019-03-09T08:15:16.282Z,1001.95
2019-03-09T08:16:16.275Z,1001.90
2019-03-09T08:17:16.292Z,1001.88
2019-03-09T08:18:16.253Z,1001.92
2019-03-09T08:19:17.225Z,1002.08
2019-03-09T08:20:16.245Z,1001.85
2019-03-09T08:21:16.248Z,1001.91
2019-03-09T08:22:16.162Z,1001.78
2019-03-09T08:23:16.242Z,1001.91
2019-03-09T08:24:16.156Z,1001.96
2019-03-09T08:25:16.141Z,1001.91
2019-03-09T08:26:16.137Z,1001.90
2019-03-09T08:27:16.155Z,1001.77
2019-03-09T08:28:16.602Z,1001.85
2019-03-09T08:29:16.207Z,1001.91
2019-03-09T08:30:16.082Z,1001.88
2019-03-09T08:31:16.079Z,1001.78
2019-03-09T08:32:16.069Z,1001.83
2019-03-09T08:33:16.097Z,1001.77
2019-03-09T08:34:16.059Z,1001.95
2019-03-09T08:35:16.107Z,1001.80
2019-03-09T08:36:16.020Z,1002.08
2019-03-09T08:37:16.021Z,1001.78
2019-03-09T08:38:15.991Z,1001.90
2019-03-09T08:39:16.066Z,1002.06
2019-03-09T08:40:15.988Z,1002.05
2019-03-09T08:41:16.045Z,1002.09
2019-03-09T08:42:15.956Z,1002.09
2019-03-09T08:43:15.957Z,1002.10
2019-03-09T08:44:15.939Z,1002.13
2019-03-09T08:45:15.970Z,1002.31
2019-03-09T08:46:15.900Z,1002.24
2019-03-09T08:47:15.987Z,1002.22
2019-03-09T08:48:15.879Z,1002.13
2019-03-09T08:49:15.930Z,1002.26
2019-03-09T08:50:15.887Z,1002.29
2019-03-09T08:51:15.910Z,1002.24
2019-03-09T08:52:15.833Z,1002.31
2019-03-09T08:53:15.938Z,1002.33
2019-03-09T08:54:15.840Z,1002.24
2019-03-09T08:55:17.845Z,1002.39
2019-03-09T08:56:15.790Z,1002.42
2019-03-09T08:57:17.798Z,1002.28
2019-03-09T08:58:15.767Z,1002.28
2019-03-09T08:59:15.791Z,1002.34
2019-03-09T09:00:15.747Z,1002.34
2019-03-09T09:01:15.785Z,1002.28
2019-03-09T09:02:15.725Z,1002.28
2019-03-09T09:03:15.799Z,1002.38
2019-03-09T09:04:15.732Z,1002.31
2019-03-09T09:05:15.801Z,1002.20
2019-03-09T09:06:15.679Z,1002.40
2019-03-09T09:07:15.713Z,1002.27
2019-03-09T09:08:15.661Z,1002.19
2019-03-09T09:09:15.765Z,1002.13
2019-03-09T09:10:15.637Z,1002.15
2019-03-09T09:11:15.637Z,1002.17
2019-03-09T09:12:15.612Z,1002.24
2019-03-09T09:13:15.650Z,1002.21
2019-03-09T09:14:15.605Z,1002.11
2019-03-09T09:15:15.665Z,1002.13
2019-03-09T09:16:15.569Z,1002.24
2019-03-09T09:17:15.575Z,1002.13
2019-03-09T09:18:15.548Z,1002.11
2019-03-09T09:19:15.622Z,1002.15
2019-03-09T09:20:15.532Z,1002.19
2019-03-09T09:21:15.602Z,1002.19
2019-03-09T09:22:15.539Z,1002.27
2019-03-09T09:23:15.514Z,1002.31
2019-03-09T09:24:15.494Z,1002.14
2019-03-09T09:25:15.532Z,1002.20
2019-03-09T09:26:15.471Z,1002.18
2019-03-09T09:27:15.542Z,1002.11
2019-03-09T09:28:15.437Z,1002.19
2019-03-09T09:29:15.492Z,1002.12
2019-03-09T09:30:15.416Z,1002.11
2019-03-09T09:31:15.466Z,1001.98
2019-03-09T09:32:15.395Z,1002.03
2019-03-09T09:33:15.482Z,1002.09
2019-03-09T09:34:15.388Z,1002.14
2019-03-09T09:35:15.393Z,1002.04
2019-03-09T09:36:15.354Z,1001.98
2019-03-09T09:37:15.412Z,1002.17
2019-03-09T09:38:15.330Z,1002.03
2019-03-09T09:39:18.833Z,1001.98
2019-03-09T09:40:15.308Z,1001.95
2019-03-09T09:41:22.294Z,1001.97
2019-03-09T09:42:15.285Z,1001.98
2019-03-09T09:43:16.368Z,1001.92
2019-03-09T09:44:15.286Z,1001.92
2019-03-09T09:45:16.292Z,1001.91
2019-03-09T09:46:15.246Z,1002.00
2019-03-09T09:47:15.274Z,1001.84
2019-03-09T09:48:15.220Z,1001.84
2019-03-09T09:49:15.320Z,1001.90
2019-03-09T09:50:15.199Z,1001.99
2019-03-09T09:51:15.296Z,1001.95
2019-03-09T09:52:15.175Z,1001.84
2019-03-09T09:53:15.209Z,1001.90
2019-03-09T09:54:15.170Z,1001.96
2019-03-09T09:55:15.226Z,1001.97
2019-03-09T09:56:15.136Z,1001.90
2019-03-09T09:57:15.132Z,1002.04
2019-03-09T09:58:15.109Z,1002.01
2019-03-09T09:59:15.183Z,1001.91
2019-03-09T10:00:15.092Z,1001.94
2019-03-09T10:01:15.159Z,1001.93
2019-03-09T10:02:15.069Z,1002.04
2019-03-09T10:03:15.075Z,1002.08
2019-03-09T10:04:15.057Z,1002.09
2019-03-09T10:05:15.137Z,1001.91
2019-03-09T10:06:15.053Z,1002.17
2019-03-09T10:07:15.100Z,1001.93
2019-03-09T10:08:15.060Z,1002.25
2019-03-09T10:09:15.011Z,1001.97
2019-03-09T10:10:14.996Z,1002.04
2019-03-09T10:11:15.027Z,1002.02
2019-03-09T10:12:14.963Z,1001.94
2019-03-09T10:13:15.039Z,1002.06
2019-03-09T10:14:14.932Z,1002.05
2019-03-09T10:15:15.010Z,1002.05
2019-03-09T10:16:14.910Z,1002.05
2019-03-09T10:17:14.965Z,1002.08
2019-03-09T10:18:14.896Z,1002.10
2019-03-09T10:19:14.977Z,1002.16
2019-03-09T10:20:14.888Z,1002.10
2019-03-09T10:21:14.895Z,1002.15
2019-03-09T10:22:14.856Z,1002.14
2019-03-09T10:23:14.905Z,1002.06
2019-03-09T10:24:14.836Z,1002.21
2019-03-09T10:25:18.352Z,1002.25
2019-03-09T10:26:14.802Z,1002.34
2019-03-09T10:27:16.885Z,1002.44
2019-03-09T10:28:14.785Z,1002.29
2019-03-09T10:29:16.788Z,1001.87
2019-03-09T10:30:14.774Z,1001.96
2019-03-09T10:31:15.776Z,1002.23
2019-03-09T10:32:14.731Z,1002.02
2019-03-09T10:33:14.772Z,1002.32
2019-03-09T10:34:14.718Z,1002.25
2019-03-09T10:35:14.811Z,1002.25
2019-03-09T10:36:14.688Z,1001.86
2019-03-09T10:37:14.691Z,1002.01
2019-03-09T10:38:14.666Z,1001.89
2019-03-09T10:39:14.709Z,1001.78
2019-03-09T10:40:14.662Z,1001.72
2019-03-09T10:41:14.721Z,1001.85
2019-03-09T10:42:14.632Z,1001.85
2019-03-09T10:43:14.629Z,1001.99
2019-03-09T10:44:14.599Z,1001.78
2019-03-09T10:45:14.654Z,1001.80
2019-03-09T10:46:14.607Z,1001.87
2019-03-09T10:47:14.688Z,1001.87
2019-03-09T10:48:14.554Z,1001.73
2019-03-09T10:49:14.568Z,1001.75
2019-03-09T10:50:14.533Z,1001.86
2019-03-09T10:51:14.616Z,1001.78
2019-03-09T10:52:14.530Z,1001.91
2019-03-09T10:53:14.601Z,1002.03
2019-03-09T10:54:14.490Z,1001.87
2019-03-09T10:55:14.507Z,1001.88
2019-03-09T10:56:14.481Z,1001.77
2019-03-09T10:57:14.525Z,1001.86
2019-03-09T10:58:14.452Z,1001.88
2019-03-09T10:59:14.544Z,1001.96
2019-03-09T11:00:14.480Z,1002.08
2019-03-09T11:01:15.499Z,1002.13
2019-03-09T11:02:14.439Z,1001.99
2019-03-09T11:03:14.461Z,1002.20
2019-03-09T11:04:14.390Z,1001.97
2019-03-09T11:05:14.520Z,1001.95
2019-03-09T11:06:14.374Z,1001.91
2019-03-09T11:07:14.386Z,1001.89
2019-03-09T11:08:14.466Z,1001.68
2019-03-09T11:09:15.454Z,1001.77
2019-03-09T11:10:14.313Z,1002.13
2019-03-09T11:11:14.367Z,1002.28
2019-03-09T11:12:14.293Z,1002.25
2019-03-09T11:13:22.309Z,1001.86
2019-03-09T11:14:14.288Z,1001.84
2019-03-09T11:15:14.343Z,1002.21
2019-03-09T11:16:14.270Z,1002.10
2019-03-09T11:17:14.353Z,1001.74
2019-03-09T11:18:14.267Z,1001.93
2019-03-09T11:19:14.263Z,1002.05
2019-03-09T11:20:14.216Z,1001.96
2019-03-09T11:21:14.304Z,1001.88
2019-03-09T11:22:14.180Z,1001.97
2019-03-09T11:23:14.188Z,1002.32
2019-03-09T11:24:14.160Z,1002.03
2019-03-09T11:25:14.218Z,1002.14
2019-03-09T11:26:14.221Z,1002.25
2019-03-09T11:27:14.227Z,1002.19
2019-03-09T11:28:14.117Z,1001.78
2019-03-09T11:29:14.125Z,1002.21
2019-03-09T11:30:14.095Z,1002.25
2019-03-09T11:31:14.172Z,1001.97
2019-03-09T11:32:14.092Z,1001.82
2019-03-09T11:33:14.153Z,1001.95
2019-03-09T11:34:14.054Z,1002.28
2019-03-09T11:35:14.076Z,1002.32
2019-03-09T11:36:14.055Z,1002.02
2019-03-09T11:37:14.081Z,1001.92
2019-03-09T11:38:14.030Z,1001.84
2019-03-09T11:39:14.094Z,1001.91
2019-03-09T11:40:13.986Z,1002.14
2019-03-09T11:41:18.950Z,1001.89
2019-03-09T11:42:14.961Z,1001.82
2019-03-09T11:43:14.019Z,1001.91
2019-03-09T11:44:13.951Z,1001.91
2019-03-09T11:45:14.029Z,1001.81
2019-03-09T11:46:13.937Z,1002.34
2019-03-09T11:47:13.945Z,1001.74
2019-03-09T11:48:13.900Z,1001.97
2019-03-09T11:49:13.956Z,1002.07
2019-03-09T11:50:13.901Z,1001.91
2019-03-09T11:51:13.997Z,1001.89
2019-03-09T11:52:19.846Z,1001.92
2019-03-09T11:53:14.903Z,1001.69
2019-03-09T11:54:13.835Z,1001.85
2019-03-09T11:55:22.802Z,1001.97
2019-03-09T11:56:13.823Z,1001.55
2019-03-09T11:57:13.834Z,1001.79
2019-03-09T11:58:13.786Z,1001.69
2019-03-09T11:59:13.831Z,1001.87
2019-03-09T12:00:13.766Z,1001.78
2019-03-09T12:01:20.387Z,1001.75
2019-03-09T12:02:13.762Z,1001.72
2019-03-09T12:03:13.744Z,1001.55
2019-03-09T12:04:13.724Z,1001.76
2019-03-09T12:05:13.759Z,1001.71
2019-03-09T12:06:13.704Z,1001.59
2019-03-09T12:07:13.805Z,1001.72
2019-03-09T12:08:13.693Z,1001.75
2019-03-09T12:09:13.682Z,1001.52
2019-03-09T12:10:13.658Z,1001.69
2019-03-09T12:11:13.697Z,1001.74